Time;durP1;ratioP1;P1;durP2;ratioP2;P2;SDS_P1;SDS_P2;PMS_P1;PMS_P2;Temp;Humidity;BMP_temperature;BMP_pressure;BME280_temperature;BME280_humidity;BME280_pressure;Samples;Min_cycle;Max_cycle;Signal;HPM_P1;HPM_P2
2022/04/23 00:02:15;;;;;;;7.00;5.20;;;;;;;;;;5007626;28;20068;-82
2022/04/23 00:04:41;;;;;;;9.63;5.30;;;;;;;;;;5023356;28;20049;-82
2022/04/23 00:07:07;;;;;;;7.80;5.55;;;;;;;;;;5002483;28;20396;-82
2022/04/23 00:09:33;;;;;;;8.70;6.00;;;;;;;;;;5025597;28;20510;-82
2022/04/23 00:12:00;;;;;;;8.18;6.00;;;;;;;;;;5025842;28;20045;-82
2022/04/23 00:14:26;;;;;;;8.13;6.00;;;;;;;;;;5007958;28;20060;-81
2022/04/23 00:16:53;;;;;;;6.22;5.40;;;;;;;;;;5010673;28;20053;-82
2022/04/23 00:19:19;;;;;;;6.70;5.38;;;;;;;;;;5009072;28;20056;-81
2022/04/23 00:21:45;;;;;;;10.13;6.60;;;;;;;;;;5007132;28;20152;-82
2022/04/23 00:24:12;;;;;;;6.90;5.50;;;;;;;;;;5021257;28;20050;-82
2022/04/23 00:26:39;;;;;;;7.43;5.97;;;;;;;;;;5020235;28;20037;-79
2022/04/23 00:29:05;;;;;;;7.55;5.72;;;;;;;;;;5005939;28;20053;-80
2022/04/23 00:31:31;;;;;;;6.55;5.57;;;;;;;;;;5019819;28;20046;-80
2022/04/23 00:33:57;;;;;;;7.97;6.18;;;;;;;;;;5002373;28;20071;-80
2022/04/23 00:36:23;;;;;;;8.82;5.88;;;;;;;;;;5021820;28;20033;-80
2022/04/23 00:38:52;;;;;;;8.00;5.90;;;;;;;;;;5025248;28;20073;-80
2022/04/23 00:44:04;;;;;;;7.22;6.07;;;;;;;;;;5005108;28;20045;-82
2022/04/23 00:46:30;;;;;;;9.40;6.13;;;;;;;;;;5007873;28;20064;-82
2022/04/23 00:48:58;;;;;;;9.90;6.30;;;;;;;;;;5007207;28;20140;-81
2022/04/23 00:51:24;;;;;;;8.20;6.13;;;;;;;;;;5023825;28;20432;-81
2022/04/23 00:53:51;;;;;;;6.80;6.10;;;;;;;;;;5006751;28;20041;-82
2022/04/23 00:56:17;;;;;;;7.57;6.35;;;;;;;;;;5002048;28;20052;-81
2022/04/23 00:58:43;;;;;;;8.73;6.63;;;;;;;;;;5014126;28;20050;-81
2022/04/23 01:01:09;;;;;;;14.30;6.63;;;;;;;;;;5020535;28;21429;-82
2022/04/23 01:03:36;;;;;;;9.13;6.55;;;;;;;;;;5001470;28;20056;-81
2022/04/23 01:06:02;;;;;;;8.48;6.38;;;;;;;;;;5027171;28;20061;-81
2022/04/23 01:08:28;;;;;;;8.18;6.80;;;;;;;;;;5007028;28;20057;-81
2022/04/23 01:10:54;;;;;;;8.05;7.03;;;;;;;;;;5024654;28;20048;-81
2022/04/23 01:13:21;;;;;;;8.30;7.35;;;;;;;;;;5018702;28;20549;-81
2022/04/23 01:15:56;;;;;;;9.32;7.32;;;;;;;;;;5006650;28;20042;-81
2022/04/23 01:18:22;;;;;;;7.45;6.60;;;;;;;;;;5025733;28;20646;-81
2022/04/23 01:20:48;;;;;;;8.13;7.13;;;;;;;;;;5023749;28;20068;-81
2022/04/23 01:23:14;;;;;;;8.15;6.68;;;;;;;;;;5006539;28;20042;-81
2022/04/23 01:25:40;;;;;;;9.40;7.32;;;;;;;;;;5005666;28;20504;-81
2022/04/23 01:28:07;;;;;;;7.95;6.82;;;;;;;;;;5022993;28;20049;-81
2022/04/23 01:30:33;;;;;;;8.40;6.93;;;;;;;;;;5024067;28;20049;-81
2022/04/23 01:32:59;;;;;;;8.82;7.45;;;;;;;;;;5025997;28;20138;-80
2022/04/23 01:35:25;;;;;;;7.88;7.03;;;;;;;;;;5010717;28;20053;-81
2022/04/23 01:37:51;;;;;;;8.25;7.10;;;;;;;;;;5009190;28;20111;-81
2022/04/23 01:40:17;;;;;;;9.23;7.03;;;;;;;;;;5010303;28;20120;-81
2022/04/23 01:42:44;;;;;;;8.40;7.35;;;;;;;;;;5022327;28;20080;-81
2022/04/23 01:45:10;;;;;;;8.32;7.45;;;;;;;;;;5028132;28;20382;-81
2022/04/23 01:47:36;;;;;;;8.32;7.35;;;;;;;;;;5022195;28;20477;-81
2022/04/23 01:50:02;;;;;;;8.38;7.53;;;;;;;;;;5027046;28;20519;-81
2022/04/23 01:52:28;;;;;;;8.30;7.50;;;;;;;;;;5009075;28;20177;-81
2022/04/23 01:54:54;;;;;;;10.13;7.57;;;;;;;;;;5026159;28;20436;-81
2022/04/23 01:57:20;;;;;;;8.77;6.93;;;;;;;;;;5022915;28;20464;-81
2022/04/23 01:59:46;;;;;;;9.80;8.10;;;;;;;;;;5011360;28;20048;-81
2022/04/23 02:02:12;;;;;;;8.70;7.68;;;;;;;;;;5029017;28;20037;-81
2022/04/23 02:04:38;;;;;;;11.45;8.45;;;;;;;;;;5023309;28;20052;-81
2022/04/23 02:07:05;;;;;;;11.77;8.85;;;;;;;;;;5010753;28;20142;-82
2022/04/23 02:09:31;;;;;;;11.98;8.52;;;;;;;;;;5010593;28;20054;-81
2022/04/23 02:11:57;;;;;;;8.65;7.75;;;;;;;;;;5029473;28;20041;-81
2022/04/23 02:14:23;;;;;;;10.73;8.10;;;;;;;;;;5025234;28;20049;-80
2022/04/23 02:16:48;;;;;;;10.77;8.57;;;;;;;;;;5006202;28;20089;-81
2022/04/23 02:19:14;;;;;;;9.88;8.40;;;;;;;;;;5010818;28;20091;-81
2022/04/23 02:21:40;;;;;;;9.48;8.43;;;;;;;;;;5025286;28;20041;-81
2022/04/23 02:24:08;;;;;;;9.57;8.27;;;;;;;;;;5012589;28;20073;-81
2022/04/23 02:26:34;;;;;;;9.27;8.32;;;;;;;;;;5027130;28;20045;-81
2022/04/23 02:29:00;;;;;;;9.90;8.90;;;;;;;;;;5012096;28;20136;-81
2022/04/23 02:31:26;;;;;;;10.52;8.82;;;;;;;;;;5006960;28;20567;-81
2022/04/23 02:33:52;;;;;;;9.88;8.88;;;;;;;;;;5024578;28;20065;-81
2022/04/23 02:36:19;;;;;;;9.63;8.63;;;;;;;;;;5011149;28;20037;-81
2022/04/23 02:38:45;;;;;;;11.10;8.85;;;;;;;;;;5027801;28;20179;-81
2022/04/23 02:41:11;;;;;;;10.65;9.55;;;;;;;;;;5011340;28;20116;-81
2022/04/23 02:43:43;;;;;;;11.45;9.45;;;;;;;;;;5029207;28;20056;-81
2022/04/23 02:46:09;;;;;;;10.98;9.27;;;;;;;;;;5026582;28;20081;-81
2022/04/23 02:48:38;;;;;;;9.88;8.88;;;;;;;;;;5025310;28;20049;-81
2022/04/23 02:51:04;;;;;;;10.70;9.52;;;;;;;;;;5024505;28;20095;-81
2022/04/23 02:53:30;;;;;;;10.57;9.43;;;;;;;;;;5003869;28;20057;-82
2022/04/23 02:55:56;;;;;;;12.13;10.05;;;;;;;;;;5027756;28;20060;-81
2022/04/23 02:58:24;;;;;;;10.40;9.30;;;;;;;;;;5026869;28;20049;-80
2022/04/23 03:00:50;;;;;;;11.65;9.88;;;;;;;;;;5020579;28;20186;-81
2022/04/23 03:03:16;;;;;;;11.00;9.82;;;;;;;;;;5026685;28;20044;-81
2022/04/23 03:05:42;;;;;;;10.70;9.60;;;;;;;;;;5026900;28;20382;-81
2022/04/23 03:08:09;;;;;;;10.80;9.38;;;;;;;;;;5007590;28;20521;-81
2022/04/23 03:10:35;;;;;;;11.00;9.90;;;;;;;;;;5007914;28;20049;-81
2022/04/23 03:13:01;;;;;;;11.65;10.45;;;;;;;;;;5007339;28;20543;-81
2022/04/23 03:15:27;;;;;;;11.35;10.20;;;;;;;;;;5024675;28;20049;-81
2022/04/23 03:18:23;;;;;;;10.80;9.70;;;;;;;;;;5027567;28;20048;-81
2022/04/23 03:20:49;;;;;;;11.25;10.05;;;;;;;;;;5010095;28;20049;-81
2022/04/23 03:23:15;;;;;;;11.38;10.27;;;;;;;;;;5027507;28;20044;-81
2022/04/23 03:25:41;;;;;;;12.43;10.80;;;;;;;;;;5009046;28;20503;-82
2022/04/23 03:28:07;;;;;;;11.40;10.18;;;;;;;;;;5027323;28;20037;-81
2022/04/23 03:30:33;;;;;;;11.70;10.57;;;;;;;;;;5024627;28;20524;-81
2022/04/23 03:32:59;;;;;;;11.90;10.70;;;;;;;;;;5025338;28;20373;-81
2022/04/23 03:35:26;;;;;;;11.35;10.25;;;;;;;;;;5024630;28;20052;-81
2022/04/23 03:37:52;;;;;;;13.95;9.98;;;;;;;;;;5010525;28;20045;-81
2022/04/23 03:40:18;;;;;;;12.05;10.70;;;;;;;;;;5024974;28;20513;-81
2022/04/23 03:42:48;;;;;;;12.68;10.82;;;;;;;;;;5008550;28;20187;-81
2022/04/23 03:45:17;;;;;;;12.75;11.40;;;;;;;;;;5010710;28;20604;-80
2022/04/23 03:47:44;;;;;;;13.00;10.98;;;;;;;;;;5008926;28;20049;-81
2022/04/23 03:50:10;;;;;;;11.57;10.35;;;;;;;;;;5025668;28;20049;-81
2022/04/23 03:52:36;;;;;;;12.70;11.30;;;;;;;;;;5007414;28;20150;-82
2022/04/23 03:55:04;;;;;;;12.23;10.88;;;;;;;;;;5010601;28;20054;-81
2022/04/23 03:57:30;;;;;;;13.02;10.63;;;;;;;;;;5008949;28;20061;-81
2022/04/23 03:59:56;;;;;;;12.63;10.75;;;;;;;;;;5023647;28;20050;-81
2022/04/23 04:02:22;;;;;;;12.45;10.80;;;;;;;;;;5002434;28;20164;-81
2022/04/23 04:04:48;;;;;;;11.98;10.77;;;;;;;;;;5008484;28;20167;-81
2022/04/23 04:07:20;;;;;;;12.30;10.77;;;;;;;;;;5022005;28;20135;-81
2022/04/23 04:09:46;;;;;;;10.95;9.85;;;;;;;;;;5005982;28;20042;-81
2022/04/23 04:12:12;;;;;;;13.40;11.25;;;;;;;;;;5022433;28;20037;-81
2022/04/23 04:14:39;;;;;;;13.10;10.90;;;;;;;;;;5028797;28;20126;-81
2022/04/23 04:17:09;;;;;;;11.73;10.50;;;;;;;;;;5026077;28;20048;-81
2022/04/23 04:19:35;;;;;;;12.45;10.90;;;;;;;;;;5011402;28;20061;-80
2022/04/23 04:22:04;;;;;;;12.30;10.32;;;;;;;;;;5001824;28;20052;-81
2022/04/23 04:24:31;;;;;;;12.57;10.57;;;;;;;;;;5008310;28;20404;-80
2022/04/23 04:26:58;;;;;;;12.25;11.02;;;;;;;;;;5021168;28;20038;-81
2022/04/23 04:29:25;;;;;;;12.15;10.95;;;;;;;;;;5007834;28;20045;-81
2022/04/23 04:31:54;;;;;;;12.25;11.05;;;;;;;;;;5022367;28;20042;-81
2022/04/23 04:34:23;;;;;;;11.73;10.45;;;;;;;;;;5008048;28;20049;-81
2022/04/23 04:36:50;;;;;;;11.82;10.63;;;;;;;;;;5007997;28;20132;-81
2022/04/23 04:39:16;;;;;;;12.63;10.77;;;;;;;;;;5025124;28;20087;-81
2022/04/23 04:41:43;;;;;;;12.70;11.13;;;;;;;;;;5005316;28;20508;-81
2022/04/23 04:44:09;;;;;;;12.00;10.52;;;;;;;;;;5024598;28;20053;-80
2022/04/23 04:46:36;;;;;;;11.00;9.88;;;;;;;;;;5025418;28;20052;-81
2022/04/23 04:49:03;;;;;;;12.48;10.40;;;;;;;;;;5004040;28;20123;-81
2022/04/23 04:51:30;;;;;;;11.07;9.98;;;;;;;;;;5005707;28;20063;-81
2022/04/23 04:53:56;;;;;;;11.57;10.20;;;;;;;;;;5006492;28;20095;-81
2022/04/23 04:56:22;;;;;;;11.73;10.45;;;;;;;;;;5006449;28;20093;-81
2022/04/23 04:58:48;;;;;;;11.77;9.98;;;;;;;;;;5024510;28;20510;-81
2022/04/23 05:01:15;;;;;;;12.10;10.50;;;;;;;;;;5002515;28;20046;-80
2022/04/23 05:03:41;;;;;;;10.55;9.45;;;;;;;;;;5021014;28;20397;-81
2022/04/23 05:06:07;;;;;;;11.55;10.30;;;;;;;;;;5026877;28;20046;-81
2022/04/23 05:08:36;;;;;;;12.20;9.77;;;;;;;;;;5012868;28;20072;-81
2022/04/23 05:11:03;;;;;;;12.35;9.40;;;;;;;;;;5005473;28;20508;-81
2022/04/23 05:13:29;;;;;;;11.20;9.88;;;;;;;;;;5011174;28;20076;-80
2022/04/23 05:15:55;;;;;;;10.15;9.15;;;;;;;;;;5029970;28;20053;-81
2022/04/23 05:18:24;;;;;;;10.63;9.52;;;;;;;;;;5029747;28;20548;-81
2022/04/23 05:20:53;;;;;;;11.63;10.13;;;;;;;;;;5009165;28;20142;-81
2022/04/23 05:23:19;;;;;;;11.60;10.32;;;;;;;;;;5024861;28;20073;-80
2022/04/23 05:25:45;;;;;;;10.73;9.60;;;;;;;;;;5013549;28;20041;-81
2022/04/23 05:28:12;;;;;;;11.68;10.48;;;;;;;;;;5007983;28;20407;-81
2022/04/23 05:30:38;;;;;;;12.10;9.68;;;;;;;;;;5029368;28;20416;-81
2022/04/23 05:33:08;;;;;;;11.35;10.25;;;;;;;;;;5009856;28;20040;-81
2022/04/23 05:35:34;;;;;;;11.65;9.70;;;;;;;;;;5032063;28;20099;-81
2022/04/23 05:38:01;;;;;;;11.88;10.77;;;;;;;;;;5029648;28;20041;-81
2022/04/23 05:40:27;;;;;;;11.07;9.98;;;;;;;;;;5005790;28;20509;-80
2022/04/23 05:42:55;;;;;;;10.85;9.75;;;;;;;;;;5011175;28;20045;-81
2022/04/23 05:45:23;;;;;;;10.98;9.88;;;;;;;;;;5007846;28;20073;-81
2022/04/23 05:47:49;;;;;;;11.85;10.35;;;;;;;;;;5029917;28;20045;-81
2022/04/23 05:50:15;;;;;;;10.90;9.80;;;;;;;;;;5026571;28;20055;-81
2022/04/23 05:52:41;;;;;;;10.82;9.73;;;;;;;;;;5012033;28;20404;-81
2022/04/23 05:55:08;;;;;;;11.05;9.95;;;;;;;;;;5011564;28;20045;-81
2022/04/23 05:57:34;;;;;;;10.43;9.40;;;;;;;;;;5022705;28;20420;-80
2022/04/23 06:00:00;;;;;;;11.18;10.07;;;;;;;;;;5011310;28;20147;-81
2022/04/23 06:02:26;;;;;;;11.30;10.20;;;;;;;;;;5010333;28;20056;-81
2022/04/23 06:04:52;;;;;;;10.80;9.73;;;;;;;;;;5011793;28;20056;-81
2022/04/23 06:07:19;;;;;;;11.35;10.35;;;;;;;;;;5021837;28;20045;-81
2022/04/23 06:09:45;;;;;;;10.15;9.13;;;;;;;;;;5024343;28;20471;-81
2022/04/23 06:12:11;;;;;;;11.45;10.20;;;;;;;;;;5029343;28;20040;-81
2022/04/23 06:14:37;;;;;;;11.60;10.50;;;;;;;;;;5007255;28;20041;-80
2022/04/23 06:17:07;;;;;;;12.55;10.35;;;;;;;;;;5021299;28;20096;-81
2022/04/23 06:19:33;;;;;;;11.02;9.93;;;;;;;;;;5007557;28;20053;-81
2022/04/23 06:21:59;;;;;;;11.07;9.98;;;;;;;;;;5013215;28;20094;-81
2022/04/23 06:24:26;;;;;;;10.88;9.88;;;;;;;;;;5024021;28;21501;-81
2022/04/23 06:26:52;;;;;;;12.15;10.40;;;;;;;;;;5012274;28;20087;-81
2022/04/23 06:29:18;;;;;;;10.93;9.82;;;;;;;;;;5008254;28;20033;-81
2022/04/23 06:31:44;;;;;;;11.15;10.07;;;;;;;;;;5026753;28;20120;-81
2022/04/23 06:34:10;;;;;;;10.80;9.80;;;;;;;;;;5004167;28;20129;-81
2022/04/23 06:36:40;;;;;;;10.15;9.25;;;;;;;;;;5025842;28;20397;-81
2022/04/23 06:39:06;;;;;;;10.73;9.73;;;;;;;;;;5025279;28;20084;-81
2022/04/23 06:41:32;;;;;;;10.95;9.75;;;;;;;;;;5025970;28;20068;-82
2022/04/23 06:43:58;;;;;;;10.35;9.30;;;;;;;;;;5022446;28;20057;-81
2022/04/23 06:46:24;;;;;;;10.00;9.00;;;;;;;;;;5020089;28;20485;-81
2022/04/23 06:48:50;;;;;;;10.98;9.93;;;;;;;;;;5023982;28;20499;-81
2022/04/23 06:51:16;;;;;;;11.05;10.05;;;;;;;;;;5008070;28;20481;-81
2022/04/23 06:53:42;;;;;;;10.80;9.82;;;;;;;;;;5029800;28;20050;-81
2022/04/23 06:56:08;;;;;;;10.10;9.10;;;;;;;;;;5039438;28;20151;-81
2022/04/23 06:58:35;;;;;;;10.35;9.27;;;;;;;;;;5013589;28;20053;-81
2022/04/23 07:01:01;;;;;;;9.93;8.93;;;;;;;;;;5004733;28;20099;-81
2022/04/23 07:03:27;;;;;;;11.23;10.02;;;;;;;;;;5008161;28;20049;-81
2022/04/23 07:05:53;;;;;;;10.68;9.57;;;;;;;;;;5008523;28;20069;-81
2022/04/23 07:08:19;;;;;;;10.98;9.88;;;;;;;;;;5008648;28;20041;-81
2022/04/23 07:10:45;;;;;;;11.73;9.80;;;;;;;;;;5022951;28;20046;-81
2022/04/23 07:13:14;;;;;;;10.80;9.70;;;;;;;;;;5009003;28;20045;-81
2022/04/23 07:15:40;;;;;;;10.55;9.45;;;;;;;;;;5008352;28;20071;-81
2022/04/23 07:18:07;;;;;;;10.63;9.38;;;;;;;;;;5009963;28;20045;-81
2022/04/23 07:20:33;;;;;;;11.18;10.07;;;;;;;;;;5024706;28;20499;-81
2022/04/23 07:25:44;;;;;;;12.00;10.77;;;;;;;;;;5018666;28;20045;-81
2022/04/23 07:28:10;;;;;;;12.00;10.80;;;;;;;;;;5008337;28;20401;-81
2022/04/23 07:30:37;;;;;;;11.02;10.02;;;;;;;;;;5020960;28;20045;-81
2022/04/23 07:33:04;;;;;;;10.40;9.45;;;;;;;;;;5020624;28;20048;-80
2022/04/23 07:38:25;;;;;;;11.02;9.93;;;;;;;;;;4947081;28;20051;-81
2022/04/23 07:40:51;;;;;;;12.80;10.68;;;;;;;;;;5021847;28;20396;-82
2022/04/23 07:43:18;;;;;;;11.35;9.90;;;;;;;;;;5024462;28;20552;-81
2022/04/23 07:45:45;;;;;;;11.73;9.68;;;;;;;;;;5009797;28;20073;-81
2022/04/23 07:48:12;;;;;;;12.70;9.73;;;;;;;;;;5010636;28;20428;-81
2022/04/23 07:50:39;;;;;;;11.07;9.98;;;;;;;;;;5028807;28;20042;-82
2022/04/23 07:53:07;;;;;;;11.77;10.57;;;;;;;;;;5011551;28;20076;-82
2022/04/23 07:55:35;;;;;;;11.25;10.13;;;;;;;;;;5009712;28;20080;-80
2022/04/23 07:58:04;;;;;;;11.82;10.02;;;;;;;;;;5002564;28;20052;-81
2022/04/23 08:00:30;;;;;;;11.85;10.02;;;;;;;;;;5021838;28;20058;-81
2022/04/23 08:02:56;;;;;;;11.07;10.00;;;;;;;;;;5006602;28;20048;-82
2022/04/23 08:05:22;;;;;;;11.00;9.90;;;;;;;;;;5023887;28;20087;-81
2022/04/23 08:07:48;;;;;;;10.98;9.60;;;;;;;;;;5008082;28;20476;-81
2022/04/23 08:10:14;;;;;;;12.00;9.77;;;;;;;;;;5023083;28;20060;-81
2022/04/23 08:12:40;;;;;;;11.18;10.07;;;;;;;;;;5008932;28;20551;-81
2022/04/23 08:15:07;;;;;;;11.50;10.30;;;;;;;;;;5028707;28;20037;-81
2022/04/23 08:17:33;;;;;;;11.20;10.00;;;;;;;;;;5005177;28;20386;-80
2022/04/23 08:19:59;;;;;;;11.23;10.13;;;;;;;;;;5003353;28;20093;-81
2022/04/23 08:22:25;;;;;;;10.63;9.60;;;;;;;;;;5007891;28;20072;-83
2022/04/23 08:24:52;;;;;;;10.80;9.65;;;;;;;;;;5026166;28;20123;-82
2022/04/23 08:27:18;;;;;;;11.50;10.30;;;;;;;;;;5006964;28;20042;-82
2022/04/23 08:32:28;;;;;;;9.35;8.32;;;;;;;;;;5020082;28;20041;-81
2022/04/23 08:34:54;;;;;;;11.07;9.68;;;;;;;;;;5005412;28;20056;-81
2022/04/23 08:37:22;;;;;;;9.80;8.57;;;;;;;;;;5003429;28;20463;-81
2022/04/23 08:39:49;;;;;;;9.45;8.55;;;;;;;;;;5019690;28;20433;-80
2022/04/23 08:42:19;;;;;;;10.15;8.55;;;;;;;;;;5022921;28;20057;-81
2022/04/23 08:44:45;;;;;;;8.52;7.20;;;;;;;;;;5024890;28;20381;-80
2022/04/23 08:47:12;;;;;;;10.07;7.82;;;;;;;;;;5024617;28;20551;-81
2022/04/23 08:49:41;;;;;;;9.43;8.52;;;;;;;;;;5016263;28;20041;-81
2022/04/23 08:52:18;;;;;;;10.10;7.78;;;;;;;;;;5003300;28;20046;-84
2022/04/23 08:54:44;;;;;;;10.77;8.35;;;;;;;;;;5018731;28;20454;-80
2022/04/23 08:57:10;;;;;;;7.53;6.82;;;;;;;;;;5001850;28;20126;-81
2022/04/23 08:59:37;;;;;;;9.27;8.18;;;;;;;;;;5006690;28;21251;-81
2022/04/23 09:02:08;;;;;;;11.02;9.15;;;;;;;;;;5024179;28;20041;-81
2022/04/23 09:04:37;;;;;;;10.55;7.95;;;;;;;;;;5011419;28;20272;-81
2022/04/23 09:07:03;;;;;;;10.55;9.02;;;;;;;;;;5007427;28;20087;-80
2022/04/23 09:09:29;;;;;;;10.07;8.40;;;;;;;;;;5002593;28;20139;-81
2022/04/23 09:11:59;;;;;;;9.35;8.45;;;;;;;;;;5021662;28;20767;-80
2022/04/23 09:14:26;;;;;;;9.57;8.45;;;;;;;;;;5021580;28;20053;-80
2022/04/23 09:25:14;;;;;;;9.02;8.13;;;;;;;;;;5020451;28;20058;-80
2022/04/23 09:27:42;;;;;;;8.60;7.72;;;;;;;;;;5022789;28;20120;-81
2022/04/23 09:30:09;;;;;;;10.18;9.05;;;;;;;;;;5027487;28;20049;-80
2022/04/23 09:32:35;;;;;;;10.07;8.70;;;;;;;;;;5024706;28;20041;-80
2022/04/23 09:35:09;;;;;;;8.65;7.93;;;;;;;;;;5024809;28;20045;-81
2022/04/23 09:40:21;;;;;;;8.95;8.05;;;;;;;;;;5024736;28;20047;-80
2022/04/23 09:43:00;;;;;;;9.18;8.15;;;;;;;;;;5024882;28;20045;-80
2022/04/23 09:45:26;;;;;;;10.63;8.88;;;;;;;;;;5008337;28;20088;-80
2022/04/23 09:47:54;;;;;;;10.07;8.63;;;;;;;;;;5001272;28;20049;-81
2022/04/23 09:50:20;;;;;;;9.35;8.45;;;;;;;;;;5022223;28;20401;-81
2022/04/23 09:52:46;;;;;;;10.93;8.45;;;;;;;;;;5010571;28;20166;-81
2022/04/23 09:55:12;;;;;;;9.07;8.15;;;;;;;;;;5020402;28;20499;-82
2022/04/23 09:57:39;;;;;;;9.95;8.77;;;;;;;;;;5026838;28;20408;-82
2022/04/23 10:00:06;;;;;;;9.35;8.55;;;;;;;;;;5027429;28;20493;-82
2022/04/23 10:02:32;;;;;;;9.32;8.52;;;;;;;;;;5010702;28;20050;-83
2022/04/23 10:04:59;;;;;;;9.52;8.63;;;;;;;;;;5014280;28;20096;-82
2022/04/23 10:07:26;;;;;;;10.20;8.93;;;;;;;;;;5028372;28;20045;-82
2022/04/23 10:09:53;;;;;;;9.18;8.27;;;;;;;;;;5034088;28;20440;-81
2022/04/23 10:12:20;;;;;;;9.38;8.48;;;;;;;;;;5028236;28;20043;-82
2022/04/23 10:14:47;;;;;;;9.85;8.95;;;;;;;;;;5029069;28;20080;-81
2022/04/23 10:17:18;;;;;;;9.93;8.90;;;;;;;;;;5030293;28;20045;-82
2022/04/23 10:19:44;;;;;;;9.60;8.70;;;;;;;;;;5019309;28;20056;-81
2022/04/23 10:22:21;;;;;;;10.13;9.23;;;;;;;;;;5025986;28;20452;-82
2022/04/23 10:24:47;;;;;;;10.27;9.27;;;;;;;;;;5001158;28;20041;-83
2022/04/23 10:27:14;;;;;;;10.25;9.35;;;;;;;;;;5025491;28;20053;-81
2022/04/23 10:29:41;;;;;;;10.38;9.40;;;;;;;;;;5006835;28;20046;-80
2022/04/23 10:32:09;;;;;;;10.05;9.15;;;;;;;;;;5022657;28;20439;-83
2022/04/23 10:34:36;;;;;;;10.02;8.90;;;;;;;;;;5008984;28;20048;-82
2022/04/23 10:37:20;;;;;;;9.77;8.90;;;;;;;;;;5023310;28;20428;-82
2022/04/23 10:39:53;;;;;;;9.93;8.98;;;;;;;;;;5019542;28;20057;-83
2022/04/23 10:42:22;;;;;;;10.27;9.27;;;;;;;;;;5027199;28;20172;-80
2022/04/23 10:44:49;;;;;;;10.45;9.45;;;;;;;;;;5024497;28;20040;-81
2022/04/23 10:47:30;;;;;;;10.30;9.38;;;;;;;;;;5025869;28;20599;-81
2022/04/23 10:50:22;;;;;;;10.50;9.50;;;;;;;;;;5019612;28;20053;-82
2022/04/23 10:52:55;;;;;;;9.77;8.77;;;;;;;;;;5007860;28;20129;-82
2022/04/23 10:55:21;;;;;;;9.98;8.98;;;;;;;;;;5024421;28;20030;-82
2022/04/23 10:57:48;;;;;;;10.85;9.23;;;;;;;;;;5022679;28;20049;-83
2022/04/23 11:00:15;;;;;;;10.38;9.32;;;;;;;;;;5006488;28;20411;-82
2022/04/23 11:02:41;;;;;;;10.68;9.68;;;;;;;;;;5030434;28;20046;-82
2022/04/23 11:13:41;;;;;;;10.82;9.73;;;;;;;;;;5026648;28;20053;-82
2022/04/23 11:16:14;;;;;;;10.98;9.88;;;;;;;;;;5009298;28;20190;-82
2022/04/23 11:18:40;;;;;;;;;;;;;;;;;;5025434;28;20029;-82
2022/04/23 11:21:12;;;;;;;10.90;9.90;;;;;;;;;;5024588;28;20369;-82
2022/04/23 11:23:42;;;;;;;10.02;9.02;;;;;;;;;;5018123;28;20064;-83
2022/04/23 11:26:11;;;;;;;10.52;9.43;;;;;;;;;;5011937;28;20094;-83
2022/04/23 11:28:38;;;;;;;9.93;8.90;;;;;;;;;;5027712;28;20049;-82
2022/04/23 11:31:14;;;;;;;9.80;8.75;;;;;;;;;;5023500;28;20045;-83
2022/04/23 11:33:56;;;;;;;9.05;8.15;;;;;;;;;;5025197;28;20123;-82
2022/04/23 11:36:26;;;;;;;10.10;8.65;;;;;;;;;;5017767;28;20040;-82
2022/04/23 11:38:53;;;;;;;9.20;8.40;;;;;;;;;;5004244;28;20041;-82
2022/04/23 11:41:34;;;;;;;9.50;8.48;;;;;;;;;;5008602;28;20109;-82
2022/04/23 11:44:15;;;;;;;10.70;8.98;;;;;;;;;;5007299;28;20145;-82
2022/04/23 11:46:45;;;;;;;8.98;8.07;;;;;;;;;;5023426;28;20045;-82
2022/04/23 11:49:25;;;;;;;8.73;7.93;;;;;;;;;;5009727;28;20046;-82
2022/04/23 11:51:51;;;;;;;11.10;9.73;;;;;;;;;;5007548;28;20045;-83
2022/04/23 11:54:17;;;;;;;8.77;7.85;;;;;;;;;;5021485;28;20041;-82
2022/04/23 11:56:46;;;;;;;9.93;8.35;;;;;;;;;;5023269;28;20087;-81
2022/04/23 11:59:12;;;;;;;8.10;7.40;;;;;;;;;;5009453;28;20057;-82
2022/04/23 12:01:38;;;;;;;9.13;8.23;;;;;;;;;;5009679;28;20053;-82
2022/04/23 12:04:05;;;;;;;9.35;8.50;;;;;;;;;;5021836;28;20049;-80
2022/04/23 12:06:44;;;;;;;9.57;8.52;;;;;;;;;;5009254;28;20173;-82
2022/04/23 12:09:12;;;;;;;8.77;7.82;;;;;;;;;;5025203;28;20128;-82
2022/04/23 12:11:38;;;;;;;9.68;8.52;;;;;;;;;;5017681;28;20037;-81
2022/04/23 12:14:04;;;;;;;8.52;7.72;;;;;;;;;;5023566;28;20480;-82
2022/04/23 12:16:35;;;;;;;8.20;7.50;;;;;;;;;;5009559;28;20473;-81
2022/04/23 12:19:02;;;;;;;9.20;8.35;;;;;;;;;;5005896;28;20049;-82
2022/04/23 12:21:28;;;;;;;9.63;7.95;;;;;;;;;;5017314;28;20157;-82
2022/04/23 12:23:55;;;;;;;9.02;8.13;;;;;;;;;;5022228;28;20049;-85
2022/04/23 12:26:22;;;;;;;8.13;7.00;;;;;;;;;;5009885;28;20053;-83
2022/04/23 12:42:26;;;;;;;8.18;7.38;;;;;;;;;;5003189;28;20054;-83
2022/04/23 12:44:53;;;;;;;7.40;6.63;;;;;;;;;;5010620;28;20112;-82
2022/04/23 12:47:28;;;;;;;7.78;6.93;;;;;;;;;;5011121;28;20460;-83
2022/04/23 12:49:55;;;;;;;7.85;7.13;;;;;;;;;;5010124;28;20042;-83
2022/04/23 12:52:29;;;;;;;7.45;6.85;;;;;;;;;;5008157;28;20073;-83
2022/04/23 12:55:14;;;;;;;7.40;6.65;;;;;;;;;;5008404;28;20054;-84
2022/04/23 12:57:51;;;;;;;7.47;6.78;;;;;;;;;;5010678;28;20155;-83
2022/04/23 13:00:26;;;;;;;7.55;6.65;;;;;;;;;;5008833;28;20041;-83
2022/04/23 13:02:56;;;;;;;7.93;7.20;;;;;;;;;;5026958;28;20490;-84
2022/04/23 13:05:23;;;;;;;6.80;6.20;;;;;;;;;;5022649;28;20486;-83
2022/04/23 13:10:34;;;;;;;7.72;7.03;;;;;;;;;;5010776;28;20056;-82
2022/04/23 13:13:00;;;;;;;8.05;7.25;;;;;;;;;;5005508;28;20060;-83
2022/04/23 13:15:26;;;;;;;7.40;6.70;;;;;;;;;;5008911;28;20042;-82
2022/04/23 13:17:52;;;;;;;7.32;6.63;;;;;;;;;;5010350;28;20050;-83
2022/04/23 13:20:20;;;;;;;7.00;6.40;;;;;;;;;;5026302;28;20072;-83
2022/04/23 13:22:47;;;;;;;7.45;6.45;;;;;;;;;;5010097;28;20045;-83
2022/04/23 13:25:14;;;;;;;6.80;6.20;;;;;;;;;;5009677;28;20103;-83
2022/04/23 13:27:43;;;;;;;7.25;6.55;;;;;;;;;;5030501;28;20120;-84
2022/04/23 13:30:11;;;;;;;7.88;7.07;;;;;;;;;;5029369;28;20489;-83
2022/04/23 13:32:39;;;;;;;14.15;12.57;;;;;;;;;;5014339;28;20092;-83
2022/04/23 13:35:10;;;;;;;7.45;6.72;;;;;;;;;;5013419;28;20136;-83
2022/04/23 13:37:36;;;;;;;8.27;7.45;;;;;;;;;;5014445;28;20144;-82
2022/04/23 13:40:02;;;;;;;7.50;6.80;;;;;;;;;;5031169;28;20516;-83
2022/04/23 13:42:28;;;;;;;7.00;6.30;;;;;;;;;;5014665;28;20045;-82
2022/04/23 13:44:55;;;;;;;7.32;6.63;;;;;;;;;;5030395;28;20124;-84
2022/04/23 13:47:21;;;;;;;7.30;6.63;;;;;;;;;;5029718;28;20045;-82
2022/04/23 13:49:48;;;;;;;7.18;6.50;;;;;;;;;;5029636;28;20045;-83
2022/04/23 13:52:14;;;;;;;7.78;6.40;;;;;;;;;;5014588;28;20485;-82
2022/04/23 13:54:40;;;;;;;7.00;6.30;;;;;;;;;;5011996;28;20533;-84
2022/04/23 13:57:06;;;;;;;6.80;6.20;;;;;;;;;;5003745;28;20076;-77
2022/04/23 13:59:35;;;;;;;6.60;6.00;;;;;;;;;;5005758;28;20081;-80
2022/04/23 14:10:17;;;;;;;6.38;5.78;;;;;;;;;;5002577;28;20088;-77
2022/04/23 14:12:44;;;;;;;7.05;6.38;;;;;;;;;;5004172;28;20553;-79
2022/04/23 14:15:11;;;;;;;7.70;7.00;;;;;;;;;;5009405;28;20046;-84
2022/04/23 14:17:37;;;;;;;6.65;6.13;;;;;;;;;;5007648;28;20128;-81
2022/04/23 14:20:03;;;;;;;5.75;5.25;;;;;;;;;;5003388;28;20046;-80
2022/04/23 14:22:29;;;;;;;5.68;5.18;;;;;;;;;;5004308;28;20490;-80
2022/04/23 14:24:55;;;;;;;5.40;4.97;;;;;;;;;;5008317;28;20086;-80
2022/04/23 14:27:21;;;;;;;5.80;5.30;;;;;;;;;;5004420;28;20395;-79
2022/04/23 14:29:50;;;;;;;5.05;4.65;;;;;;;;;;5006952;28;20136;-79
2022/04/23 14:32:16;;;;;;;5.43;4.93;;;;;;;;;;5002945;28;20494;-79
2022/04/23 14:34:44;;;;;;;6.85;5.15;;;;;;;;;;5000589;28;20134;-78
2022/04/23 14:37:10;;;;;;;4.82;4.43;;;;;;;;;;5006505;28;20056;-81
2022/04/23 14:39:36;;;;;;;4.32;4.03;;;;;;;;;;5007187;28;20169;-81
2022/04/23 14:42:02;;;;;;;4.57;4.10;;;;;;;;;;5008163;28;20050;-81
2022/04/23 14:44:29;;;;;;;4.47;4.07;;;;;;;;;;5008661;28;20057;-81
2022/04/23 14:46:55;;;;;;;4.80;4.28;;;;;;;;;;5006183;28;20038;-77
2022/04/23 14:49:21;;;;;;;4.50;4.10;;;;;;;;;;5006332;28;20045;-80
2022/04/23 14:54:32;;;;;;;4.55;3.60;;;;;;;;;;5010819;28;20107;-85
2022/04/23 14:56:58;;;;;;;3.90;3.60;;;;;;;;;;4994481;28;20050;-86
2022/04/23 14:59:26;;;;;;;4.13;3.83;;;;;;;;;;5011708;28;20049;-84
2022/04/23 15:01:52;;;;;;;5.55;4.18;;;;;;;;;;5012913;28;20494;-84
2022/04/23 15:04:19;;;;;;;5.25;4.03;;;;;;;;;;5008081;28;20448;-87
2022/04/23 15:06:47;;;;;;;4.35;4.05;;;;;;;;;;5005029;28;20065;-80
2022/04/23 15:09:13;;;;;;;4.50;3.90;;;;;;;;;;5008560;28;20077;-81
2022/04/23 15:11:39;;;;;;;4.63;3.95;;;;;;;;;;5003792;28;20056;-81
2022/04/23 15:14:05;;;;;;;5.68;3.78;;;;;;;;;;5007693;28;20046;-81
2022/04/23 15:16:31;;;;;;;3.60;3.40;;;;;;;;;;5007974;28;20050;-81
2022/04/23 15:18:57;;;;;;;4.95;4.50;;;;;;;;;;5004342;28;20111;-81
2022/04/23 15:21:23;;;;;;;4.68;3.50;;;;;;;;;;5006232;28;20506;-81
2022/04/23 15:23:49;;;;;;;4.25;3.50;;;;;;;;;;5007531;28;20053;-81
2022/04/23 15:26:17;;;;;;;3.50;3.20;;;;;;;;;;5004623;28;20042;-82
2022/04/23 15:28:43;;;;;;;3.58;3.38;;;;;;;;;;5009628;28;20042;-82
2022/04/23 15:31:10;;;;;;;4.90;3.33;;;;;;;;;;5008504;28;20038;-85
2022/04/23 15:33:37;;;;;;;3.20;3.00;;;;;;;;;;5007975;28;20172;-79